sensor_id;sensor_type;location;lat;lon;timestamp;P1;durP1;ratioP1;P2;durP2;ratioP2
76566;SDS011;65428;53.194;6.132;2023-02-28T00:01:22;9.15;;;4.65;;
76566;SDS011;65428;53.194;6.132;2023-02-28T00:03:47;10.52;;;4.05;;
76566;SDS011;65428;53.194;6.132;2023-02-28T00:06:14;13.43;;;4.80;;
76566;SDS011;65428;53.194;6.132;2023-02-28T00:08:39;8.40;;;3.95;;
76566;SDS011;65428;53.194;6.132;2023-02-28T00:11:07;9.75;;;3.42;;
76566;SDS011;65428;53.194;6.132;2023-02-28T00:13:34;9.80;;;3.60;;
76566;SDS011;65428;53.194;6.132;2023-02-28T00:16:03;9.75;;;3.17;;
76566;SDS011;65428;53.194;6.132;2023-02-28T00:18:31;7.53;;;3.33;;
76566;SDS011;65428;53.194;6.132;2023-02-28T00:20:58;8.07;;;3.47;;
76566;SDS011;65428;53.194;6.132;2023-02-28T00:23:24;8.95;;;3.63;;
76566;SDS011;65428;53.194;6.132;2023-02-28T00:25:50;8.75;;;3.13;;
76566;SDS011;65428;53.194;6.132;2023-02-28T00:28:16;11.27;;;4.35;;
76566;SDS011;65428;53.194;6.132;2023-02-28T00:30:42;10.38;;;3.95;;
76566;SDS011;65428;53.194;6.132;2023-02-28T00:33:07;8.85;;;4.32;;
76566;SDS011;65428;53.194;6.132;2023-02-28T00:35:33;12.07;;;4.07;;
76566;SDS011;65428;53.194;6.132;2023-02-28T00:37:59;12.48;;;4.68;;
76566;SDS011;65428;53.194;6.132;2023-02-28T00:40:24;8.70;;;3.97;;
76566;SDS011;65428;53.194;6.132;2023-02-28T00:42:50;11.27;;;4.37;;
76566;SDS011;65428;53.194;6.132;2023-02-28T00:45:16;9.32;;;3.50;;
76566;SDS011;65428;53.194;6.132;2023-02-28T00:47:41;9.83;;;4.33;;
76566;SDS011;65428;53.194;6.132;2023-02-28T00:50:07;9.90;;;4.97;;
76566;SDS011;65428;53.194;6.132;2023-02-28T00:52:34;11.35;;;4.45;;
76566;SDS011;65428;53.194;6.132;2023-02-28T00:54:59;8.27;;;3.67;;
76566;SDS011;65428;53.194;6.132;2023-02-28T00:57:25;8.75;;;3.92;;
76566;SDS011;65428;53.194;6.132;2023-02-28T00:59:51;11.48;;;4.60;;
76566;SDS011;65428;53.194;6.132;2023-02-28T01:02:19;12.40;;;5.75;;
76566;SDS011;65428;53.194;6.132;2023-02-28T01:04:46;9.48;;;5.20;;
76566;SDS011;65428;53.194;6.132;2023-02-28T01:07:12;8.77;;;4.22;;
76566;SDS011;65428;53.194;6.132;2023-02-28T01:09:39;6.95;;;3.83;;
76566;SDS011;65428;53.194;6.132;2023-02-28T01:12:06;9.33;;;3.83;;
76566;SDS011;65428;53.194;6.132;2023-02-28T01:14:32;10.63;;;3.78;;
76566;SDS011;65428;53.194;6.132;2023-02-28T01:16:58;10.20;;;4.30;;
76566;SDS011;65428;53.194;6.132;2023-02-28T01:19:23;10.17;;;4.17;;
76566;SDS011;65428;53.194;6.132;2023-02-28T01:21:49;11.30;;;4.25;;
76566;SDS011;65428;53.194;6.132;2023-02-28T01:24:15;9.17;;;3.60;;
76566;SDS011;65428;53.194;6.132;2023-02-28T01:26:40;8.70;;;2.90;;
76566;SDS011;65428;53.194;6.132;2023-02-28T01:29:06;11.70;;;4.80;;
76566;SDS011;65428;53.194;6.132;2023-02-28T01:31:32;12.17;;;4.20;;
76566;SDS011;65428;53.194;6.132;2023-02-28T01:33:57;9.00;;;3.13;;
76566;SDS011;65428;53.194;6.132;2023-02-28T01:36:23;10.20;;;4.15;;
76566;SDS011;65428;53.194;6.132;2023-02-28T01:38:50;7.90;;;4.13;;
76566;SDS011;65428;53.194;6.132;2023-02-28T01:41:20;8.27;;;3.97;;
76566;SDS011;65428;53.194;6.132;2023-02-28T01:46:12;9.13;;;3.97;;
76566;SDS011;65428;53.194;6.132;2023-02-28T01:48:40;10.00;;;3.60;;
76566;SDS011;65428;53.194;6.132;2023-02-28T01:51:13;9.90;;;3.80;;
76566;SDS011;65428;53.194;6.132;2023-02-28T01:53:53;7.60;;;3.97;;
76566;SDS011;65428;53.194;6.132;2023-02-28T01:56:32;8.95;;;3.70;;
76566;SDS011;65428;53.194;6.132;2023-02-28T01:59:00;7.82;;;3.83;;
76566;SDS011;65428;53.194;6.132;2023-02-28T02:01:27;11.60;;;5.55;;
76566;SDS011;65428;53.194;6.132;2023-02-28T02:03:53;6.43;;;4.03;;
76566;SDS011;65428;53.194;6.132;2023-02-28T02:06:25;9.43;;;4.30;;
76566;SDS011;65428;53.194;6.132;2023-02-28T02:08:55;10.63;;;4.47;;
76566;SDS011;65428;53.194;6.132;2023-02-28T02:11:21;9.00;;;4.63;;
76566;SDS011;65428;53.194;6.132;2023-02-28T02:14:10;8.23;;;3.40;;
76566;SDS011;65428;53.194;6.132;2023-02-28T02:20:03;11.43;;;5.25;;
76566;SDS011;65428;53.194;6.132;2023-02-28T02:36:24;9.97;;;5.43;;
76566;SDS011;65428;53.194;6.132;2023-02-28T02:39:06;11.90;;;5.30;;
76566;SDS011;65428;53.194;6.132;2023-02-28T02:42:03;9.43;;;5.05;;
76566;SDS011;65428;53.194;6.132;2023-02-28T02:44:43;11.23;;;4.30;;
76566;SDS011;65428;53.194;6.132;2023-02-28T02:47:21;10.30;;;5.43;;
76566;SDS011;65428;53.194;6.132;2023-02-28T02:49:55;13.23;;;5.32;;
76566;SDS011;65428;53.194;6.132;2023-02-28T02:52:23;11.10;;;5.60;;
76566;SDS011;65428;53.194;6.132;2023-02-28T02:54:54;14.27;;;6.20;;
76566;SDS011;65428;53.194;6.132;2023-02-28T02:57:26;11.85;;;5.38;;
76566;SDS011;65428;53.194;6.132;2023-02-28T02:59:57;13.80;;;5.72;;
76566;SDS011;65428;53.194;6.132;2023-02-28T03:02:25;11.85;;;4.65;;
76566;SDS011;65428;53.194;6.132;2023-02-28T03:04:59;11.52;;;5.30;;
76566;SDS011;65428;53.194;6.132;2023-02-28T03:07:46;12.52;;;5.43;;
76566;SDS011;65428;53.194;6.132;2023-02-28T03:10:32;9.25;;;4.72;;
76566;SDS011;65428;53.194;6.132;2023-02-28T03:13:04;10.60;;;4.70;;
76566;SDS011;65428;53.194;6.132;2023-02-28T03:16:13;13.38;;;5.65;;
76566;SDS011;65428;53.194;6.132;2023-02-28T03:29:44;7.40;;;4.20;;
76566;SDS011;65428;53.194;6.132;2023-02-28T03:32:24;13.40;;;5.85;;
76566;SDS011;65428;53.194;6.132;2023-02-28T03:37:24;12.43;;;4.10;;
76566;SDS011;65428;53.194;6.132;2023-02-28T03:39:53;10.38;;;5.32;;
76566;SDS011;65428;53.194;6.132;2023-02-28T03:42:25;13.20;;;5.25;;
76566;SDS011;65428;53.194;6.132;2023-02-28T03:44:58;11.45;;;4.97;;
76566;SDS011;65428;53.194;6.132;2023-02-28T03:47:33;15.27;;;6.13;;
76566;SDS011;65428;53.194;6.132;2023-02-28T03:50:02;13.63;;;6.33;;
76566;SDS011;65428;53.194;6.132;2023-02-28T03:52:44;10.88;;;4.68;;
76566;SDS011;65428;53.194;6.132;2023-02-28T03:55:26;14.23;;;7.10;;
76566;SDS011;65428;53.194;6.132;2023-02-28T04:00:34;13.30;;;6.15;;
76566;SDS011;65428;53.194;6.132;2023-02-28T04:03:03;11.68;;;5.70;;
76566;SDS011;65428;53.194;6.132;2023-02-28T04:05:29;11.75;;;5.75;;
76566;SDS011;65428;53.194;6.132;2023-02-28T04:08:06;9.68;;;5.43;;
76566;SDS011;65428;53.194;6.132;2023-02-28T04:10:32;14.40;;;6.47;;
76566;SDS011;65428;53.194;6.132;2023-02-28T04:12:58;12.53;;;6.30;;
76566;SDS011;65428;53.194;6.132;2023-02-28T04:15:24;9.83;;;4.97;;
76566;SDS011;65428;53.194;6.132;2023-02-28T04:17:50;12.25;;;5.40;;
76566;SDS011;65428;53.194;6.132;2023-02-28T04:20:15;11.27;;;4.97;;
76566;SDS011;65428;53.194;6.132;2023-02-28T04:22:41;12.32;;;5.60;;
76566;SDS011;65428;53.194;6.132;2023-02-28T04:25:07;13.35;;;5.57;;
76566;SDS011;65428;53.194;6.132;2023-02-28T04:27:33;11.40;;;6.00;;
76566;SDS011;65428;53.194;6.132;2023-02-28T04:29:58;13.47;;;6.80;;
76566;SDS011;65428;53.194;6.132;2023-02-28T04:32:24;10.10;;;5.30;;
76566;SDS011;65428;53.194;6.132;2023-02-28T04:34:50;15.03;;;6.93;;
76566;SDS011;65428;53.194;6.132;2023-02-28T04:37:15;8.80;;;5.10;;
76566;SDS011;65428;53.194;6.132;2023-02-28T04:39:41;13.27;;;5.87;;
76566;SDS011;65428;53.194;6.132;2023-02-28T04:42:07;15.73;;;7.32;;
76566;SDS011;65428;53.194;6.132;2023-02-28T04:44:33;14.07;;;9.38;;
76566;SDS011;65428;53.194;6.132;2023-02-28T04:46:58;14.70;;;9.07;;
76566;SDS011;65428;53.194;6.132;2023-02-28T04:49:24;16.63;;;9.63;;
76566;SDS011;65428;53.194;6.132;2023-02-28T04:51:50;15.43;;;9.90;;
76566;SDS011;65428;53.194;6.132;2023-02-28T04:54:15;18.75;;;12.20;;
76566;SDS011;65428;53.194;6.132;2023-02-28T04:56:42;15.18;;;10.32;;
76566;SDS011;65428;53.194;6.132;2023-02-28T04:59:08;13.90;;;10.00;;
76566;SDS011;65428;53.194;6.132;2023-02-28T05:01:34;16.17;;;11.80;;
76566;SDS011;65428;53.194;6.132;2023-02-28T05:04:01;14.48;;;10.88;;
76566;SDS011;65428;53.194;6.132;2023-02-28T05:06:29;16.50;;;12.05;;
76566;SDS011;65428;53.194;6.132;2023-02-28T05:08:56;17.58;;;15.60;;
76566;SDS011;65428;53.194;6.132;2023-02-28T05:11:29;17.27;;;15.48;;
76566;SDS011;65428;53.194;6.132;2023-02-28T05:14:07;19.43;;;16.63;;
76566;SDS011;65428;53.194;6.132;2023-02-28T05:16:36;21.08;;;18.65;;
76566;SDS011;65428;53.194;6.132;2023-02-28T05:19:02;27.60;;;21.40;;
76566;SDS011;65428;53.194;6.132;2023-02-28T05:21:29;27.73;;;22.23;;
76566;SDS011;65428;53.194;6.132;2023-02-28T05:24:04;24.45;;;19.83;;
76566;SDS011;65428;53.194;6.132;2023-02-28T05:26:37;25.67;;;19.67;;
76566;SDS011;65428;53.194;6.132;2023-02-28T05:29:04;24.92;;;19.75;;
76566;SDS011;65428;53.194;6.132;2023-02-28T05:31:30;23.00;;;18.48;;
76566;SDS011;65428;53.194;6.132;2023-02-28T05:33:56;21.27;;;18.00;;
76566;SDS011;65428;53.194;6.132;2023-02-28T05:36:22;25.03;;;20.70;;
76566;SDS011;65428;53.194;6.132;2023-02-28T05:38:48;24.08;;;21.35;;
76566;SDS011;65428;53.194;6.132;2023-02-28T05:41:15;20.08;;;17.85;;
76566;SDS011;65428;53.194;6.132;2023-02-28T05:43:42;17.35;;;14.45;;
76566;SDS011;65428;53.194;6.132;2023-02-28T05:46:09;10.10;;;8.98;;
76566;SDS011;65428;53.194;6.132;2023-02-28T05:48:37;9.57;;;7.90;;
76566;SDS011;65428;53.194;6.132;2023-02-28T05:51:04;11.20;;;9.87;;
76566;SDS011;65428;53.194;6.132;2023-02-28T05:53:31;12.40;;;10.00;;
76566;SDS011;65428;53.194;6.132;2023-02-28T05:55:57;12.82;;;10.70;;
76566;SDS011;65428;53.194;6.132;2023-02-28T05:58:23;12.80;;;10.55;;
76566;SDS011;65428;53.194;6.132;2023-02-28T06:00:50;13.48;;;11.68;;
76566;SDS011;65428;53.194;6.132;2023-02-28T06:03:16;13.95;;;11.02;;
76566;SDS011;65428;53.194;6.132;2023-02-28T06:05:42;12.95;;;11.30;;
76566;SDS011;65428;53.194;6.132;2023-02-28T06:08:07;15.18;;;12.20;;
76566;SDS011;65428;53.194;6.132;2023-02-28T06:10:33;16.03;;;12.60;;
76566;SDS011;65428;53.194;6.132;2023-02-28T06:13:00;15.88;;;12.93;;
76566;SDS011;65428;53.194;6.132;2023-02-28T06:15:30;17.38;;;13.38;;
76566;SDS011;65428;53.194;6.132;2023-02-28T06:17:56;16.87;;;13.00;;
76566;SDS011;65428;53.194;6.132;2023-02-28T06:20:22;20.10;;;14.43;;
76566;SDS011;65428;53.194;6.132;2023-02-28T06:22:48;21.50;;;15.32;;
76566;SDS011;65428;53.194;6.132;2023-02-28T06:25:16;19.35;;;14.20;;
76566;SDS011;65428;53.194;6.132;2023-02-28T06:27:42;19.10;;;14.77;;
76566;SDS011;65428;53.194;6.132;2023-02-28T06:30:09;16.73;;;13.20;;
76566;SDS011;65428;53.194;6.132;2023-02-28T06:32:36;15.68;;;12.93;;
76566;SDS011;65428;53.194;6.132;2023-02-28T06:35:02;15.07;;;12.60;;
76566;SDS011;65428;53.194;6.132;2023-02-28T06:37:28;14.73;;;11.95;;
76566;SDS011;65428;53.194;6.132;2023-02-28T06:39:55;15.48;;;13.10;;
76566;SDS011;65428;53.194;6.132;2023-02-28T06:42:21;16.08;;;13.43;;
76566;SDS011;65428;53.194;6.132;2023-02-28T06:44:50;15.15;;;13.18;;
76566;SDS011;65428;53.194;6.132;2023-02-28T06:47:16;15.93;;;12.82;;
76566;SDS011;65428;53.194;6.132;2023-02-28T06:49:42;15.70;;;12.68;;
76566;SDS011;65428;53.194;6.132;2023-02-28T06:52:07;18.60;;;14.00;;
76566;SDS011;65428;53.194;6.132;2023-02-28T06:54:36;17.08;;;14.27;;
76566;SDS011;65428;53.194;6.132;2023-02-28T06:57:02;20.25;;;15.35;;
76566;SDS011;65428;53.194;6.132;2023-02-28T06:59:27;22.00;;;16.40;;
76566;SDS011;65428;53.194;6.132;2023-02-28T07:01:53;24.70;;;17.63;;
76566;SDS011;65428;53.194;6.132;2023-02-28T07:04:20;23.07;;;17.57;;
76566;SDS011;65428;53.194;6.132;2023-02-28T07:06:46;24.63;;;18.38;;
76566;SDS011;65428;53.194;6.132;2023-02-28T07:09:11;25.67;;;19.15;;
76566;SDS011;65428;53.194;6.132;2023-02-28T07:11:38;27.90;;;20.27;;
76566;SDS011;65428;53.194;6.132;2023-02-28T07:14:05;25.10;;;19.30;;
76566;SDS011;65428;53.194;6.132;2023-02-28T07:16:31;28.75;;;20.23;;
76566;SDS011;65428;53.194;6.132;2023-02-28T07:18:58;25.63;;;19.48;;
76566;SDS011;65428;53.194;6.132;2023-02-28T07:21:23;27.27;;;20.10;;
76566;SDS011;65428;53.194;6.132;2023-02-28T07:23:49;29.25;;;21.42;;
76566;SDS011;65428;53.194;6.132;2023-02-28T07:26:16;32.80;;;22.77;;
76566;SDS011;65428;53.194;6.132;2023-02-28T07:28:44;29.10;;;21.90;;
76566;SDS011;65428;53.194;6.132;2023-02-28T07:31:11;32.42;;;23.48;;
76566;SDS011;65428;53.194;6.132;2023-02-28T07:33:39;31.70;;;23.05;;
76566;SDS011;65428;53.194;6.132;2023-02-28T07:36:06;34.60;;;23.63;;
76566;SDS011;65428;53.194;6.132;2023-02-28T07:38:34;30.55;;;22.65;;
76566;SDS011;65428;53.194;6.132;2023-02-28T07:41:00;28.77;;;21.77;;
76566;SDS011;65428;53.194;6.132;2023-02-28T07:43:29;31.58;;;23.30;;
76566;SDS011;65428;53.194;6.132;2023-02-28T07:46:00;32.20;;;22.67;;
76566;SDS011;65428;53.194;6.132;2023-02-28T07:48:31;32.80;;;23.58;;
76566;SDS011;65428;53.194;6.132;2023-02-28T07:50:57;40.75;;;26.65;;
76566;SDS011;65428;53.194;6.132;2023-02-28T07:53:24;33.10;;;23.60;;
76566;SDS011;65428;53.194;6.132;2023-02-28T07:55:50;37.78;;;26.02;;
76566;SDS011;65428;53.194;6.132;2023-02-28T07:58:15;39.03;;;26.20;;
76566;SDS011;65428;53.194;6.132;2023-02-28T08:00:41;38.67;;;26.03;;
76566;SDS011;65428;53.194;6.132;2023-02-28T08:03:08;29.77;;;22.75;;
76566;SDS011;65428;53.194;6.132;2023-02-28T08:05:40;37.75;;;25.70;;
76566;SDS011;65428;53.194;6.132;2023-02-28T08:08:06;40.47;;;26.63;;
76566;SDS011;65428;53.194;6.132;2023-02-28T08:10:33;42.08;;;28.13;;
76566;SDS011;65428;53.194;6.132;2023-02-28T08:12:58;34.80;;;25.30;;
76566;SDS011;65428;53.194;6.132;2023-02-28T08:15:25;35.90;;;24.60;;
76566;SDS011;65428;53.194;6.132;2023-02-28T08:17:50;38.20;;;26.02;;
76566;SDS011;65428;53.194;6.132;2023-02-28T08:20:16;39.27;;;26.90;;
76566;SDS011;65428;53.194;6.132;2023-02-28T08:22:42;32.38;;;24.15;;
76566;SDS011;65428;53.194;6.132;2023-02-28T08:25:08;33.03;;;24.83;;
76566;SDS011;65428;53.194;6.132;2023-02-28T08:27:34;41.70;;;28.23;;
76566;SDS011;65428;53.194;6.132;2023-02-28T08:30:01;31.08;;;23.75;;
76566;SDS011;65428;53.194;6.132;2023-02-28T08:32:28;28.98;;;21.95;;
76566;SDS011;65428;53.194;6.132;2023-02-28T08:34:53;28.02;;;21.27;;
76566;SDS011;65428;53.194;6.132;2023-02-28T08:37:19;33.28;;;24.58;;
76566;SDS011;65428;53.194;6.132;2023-02-28T08:39:45;36.15;;;26.20;;
76566;SDS011;65428;53.194;6.132;2023-02-28T08:42:10;30.67;;;24.07;;
76566;SDS011;65428;53.194;6.132;2023-02-28T08:44:36;26.87;;;21.67;;
76566;SDS011;65428;53.194;6.132;2023-02-28T08:47:02;39.35;;;26.52;;
76566;SDS011;65428;53.194;6.132;2023-02-28T08:49:27;47.63;;;28.30;;
76566;SDS011;65428;53.194;6.132;2023-02-28T08:51:53;42.67;;;27.30;;
76566;SDS011;65428;53.194;6.132;2023-02-28T08:54:20;39.42;;;26.17;;
76566;SDS011;65428;53.194;6.132;2023-02-28T08:56:46;30.53;;;23.63;;
76566;SDS011;65428;53.194;6.132;2023-02-28T08:59:12;37.53;;;25.70;;
76566;SDS011;65428;53.194;6.132;2023-02-28T09:01:38;26.55;;;22.08;;
76566;SDS011;65428;53.194;6.132;2023-02-28T09:04:06;25.35;;;21.25;;
76566;SDS011;65428;53.194;6.132;2023-02-28T09:06:33;23.95;;;20.13;;
76566;SDS011;65428;53.194;6.132;2023-02-28T09:08:59;29.15;;;22.90;;
76566;SDS011;65428;53.194;6.132;2023-02-28T09:11:26;28.52;;;23.17;;
76566;SDS011;65428;53.194;6.132;2023-02-28T09:13:53;26.65;;;21.40;;
76566;SDS011;65428;53.194;6.132;2023-02-28T09:16:20;27.23;;;22.48;;
76566;SDS011;65428;53.194;6.132;2023-02-28T09:18:46;25.05;;;19.83;;
76566;SDS011;65428;53.194;6.132;2023-02-28T09:21:14;25.07;;;20.90;;
76566;SDS011;65428;53.194;6.132;2023-02-28T09:23:42;22.13;;;19.00;;
76566;SDS011;65428;53.194;6.132;2023-02-28T09:26:12;27.43;;;22.03;;
76566;SDS011;65428;53.194;6.132;2023-02-28T09:28:39;21.17;;;18.17;;
76566;SDS011;65428;53.194;6.132;2023-02-28T09:31:05;21.23;;;18.87;;
76566;SDS011;65428;53.194;6.132;2023-02-28T09:33:30;25.45;;;20.17;;
76566;SDS011;65428;53.194;6.132;2023-02-28T09:35:57;26.13;;;20.60;;
76566;SDS011;65428;53.194;6.132;2023-02-28T09:38:25;21.73;;;19.33;;
76566;SDS011;65428;53.194;6.132;2023-02-28T09:41:01;18.65;;;16.25;;
76566;SDS011;65428;53.194;6.132;2023-02-28T09:43:32;21.48;;;17.52;;
76566;SDS011;65428;53.194;6.132;2023-02-28T09:46:08;24.02;;;18.95;;
76566;SDS011;65428;53.194;6.132;2023-02-28T09:48:39;19.63;;;17.27;;
76566;SDS011;65428;53.194;6.132;2023-02-28T09:51:22;17.77;;;14.87;;
76566;SDS011;65428;53.194;6.132;2023-02-28T09:53:58;15.82;;;14.10;;
76566;SDS011;65428;53.194;6.132;2023-02-28T09:56:25;17.85;;;15.93;;
76566;SDS011;65428;53.194;6.132;2023-02-28T09:58:59;14.63;;;13.13;;
76566;SDS011;65428;53.194;6.132;2023-02-28T10:01:51;13.20;;;11.80;;
76566;SDS011;65428;53.194;6.132;2023-02-28T10:10:44;12.32;;;9.90;;
76566;SDS011;65428;53.194;6.132;2023-02-28T10:13:04;11.00;;;9.90;;
76566;SDS011;65428;53.194;6.132;2023-02-28T10:15:55;10.85;;;9.38;;
76566;SDS011;65428;53.194;6.132;2023-02-28T10:18:47;10.68;;;8.98;;
76566;SDS011;65428;53.194;6.132;2023-02-28T10:21:21;11.25;;;9.60;;
76566;SDS011;65428;53.194;6.132;2023-02-28T10:23:53;11.55;;;10.43;;
76566;SDS011;65428;53.194;6.132;2023-02-28T10:26:27;9.80;;;8.80;;
76566;SDS011;65428;53.194;6.132;2023-02-28T10:28:55;9.20;;;8.25;;
76566;SDS011;65428;53.194;6.132;2023-02-28T10:31:21;8.15;;;7.32;;
76566;SDS011;65428;53.194;6.132;2023-02-28T10:33:47;7.72;;;6.80;;
76566;SDS011;65428;53.194;6.132;2023-02-28T10:36:17;8.30;;;7.32;;
76566;SDS011;65428;53.194;6.132;2023-02-28T10:38:45;6.23;;;5.50;;
76566;SDS011;65428;53.194;6.132;2023-02-28T10:41:13;6.30;;;4.80;;
76566;SDS011;65428;53.194;6.132;2023-02-28T10:43:53;6.90;;;5.85;;
76566;SDS011;65428;53.194;6.132;2023-02-28T10:46:47;5.07;;;4.38;;
76566;SDS011;65428;53.194;6.132;2023-02-28T10:49:21;6.13;;;4.40;;
76566;SDS011;65428;53.194;6.132;2023-02-28T10:51:49;6.93;;;5.50;;
76566;SDS011;65428;53.194;6.132;2023-02-28T10:54:31;6.55;;;5.90;;
76566;SDS011;65428;53.194;6.132;2023-02-28T10:59:32;4.57;;;3.95;;
76566;SDS011;65428;53.194;6.132;2023-02-28T11:01:57;4.35;;;3.95;;
76566;SDS011;65428;53.194;6.132;2023-02-28T11:07:02;4.10;;;3.70;;
76566;SDS011;65428;53.194;6.132;2023-02-28T11:09:29;5.45;;;4.13;;
76566;SDS011;65428;53.194;6.132;2023-02-28T11:11:59;5.47;;;4.85;;
76566;SDS011;65428;53.194;6.132;2023-02-28T11:14:27;6.63;;;5.00;;
76566;SDS011;65428;53.194;6.132;2023-02-28T11:16:55;5.70;;;5.10;;
76566;SDS011;65428;53.194;6.132;2023-02-28T11:19:26;5.05;;;3.75;;
76566;SDS011;65428;53.194;6.132;2023-02-28T11:22:00;4.07;;;3.15;;
76566;SDS011;65428;53.194;6.132;2023-02-28T11:24:30;3.50;;;2.05;;
76566;SDS011;65428;53.194;6.132;2023-02-28T11:27:02;3.45;;;2.08;;
76566;SDS011;65428;53.194;6.132;2023-02-28T11:29:29;3.95;;;2.25;;
76566;SDS011;65428;53.194;6.132;2023-02-28T11:34:40;3.15;;;2.38;;
76566;SDS011;65428;53.194;6.132;2023-02-28T11:37:11;2.67;;;2.20;;
76566;SDS011;65428;53.194;6.132;2023-02-28T11:39:39;4.63;;;2.63;;
76566;SDS011;65428;53.194;6.132;2023-02-28T11:48:15;3.75;;;2.97;;
76566;SDS011;65428;53.194;6.132;2023-02-28T11:50:53;4.20;;;3.10;;
76566;SDS011;65428;53.194;6.132;2023-02-28T11:53:22;3.65;;;2.95;;
76566;SDS011;65428;53.194;6.132;2023-02-28T11:56:08;3.72;;;3.10;;
76566;SDS011;65428;53.194;6.132;2023-02-28T12:09:30;3.50;;;3.20;;
76566;SDS011;65428;53.194;6.132;2023-02-28T12:12:17;4.10;;;2.88;;
76566;SDS011;65428;53.194;6.132;2023-02-28T12:23:24;3.78;;;2.58;;
76566;SDS011;65428;53.194;6.132;2023-02-28T12:28:47;3.63;;;2.90;;
76566;SDS011;65428;53.194;6.132;2023-02-28T12:31:29;2.70;;;2.38;;
76566;SDS011;65428;53.194;6.132;2023-02-28T12:34:02;3.05;;;2.67;;
76566;SDS011;65428;53.194;6.132;2023-02-28T12:36:31;3.42;;;2.53;;
76566;SDS011;65428;53.194;6.132;2023-02-28T12:39:10;3.40;;;2.63;;
76566;SDS011;65428;53.194;6.132;2023-02-28T12:41:42;3.28;;;2.40;;
76566;SDS011;65428;53.194;6.132;2023-02-28T12:44:29;3.00;;;2.50;;
76566;SDS011;65428;53.194;6.132;2023-02-28T12:46:59;3.17;;;2.40;;
76566;SDS011;65428;53.194;6.132;2023-02-28T12:49:31;4.10;;;2.72;;
76566;SDS011;65428;53.194;6.132;2023-02-28T12:52:02;4.15;;;2.70;;
76566;SDS011;65428;53.194;6.132;2023-02-28T12:59:42;4.40;;;2.78;;
76566;SDS011;65428;53.194;6.132;2023-02-28T13:08:12;3.45;;;2.72;;
76566;SDS011;65428;53.194;6.132;2023-02-28T13:10:48;3.63;;;2.90;;
76566;SDS011;65428;53.194;6.132;2023-02-28T13:13:19;4.40;;;2.97;;
76566;SDS011;65428;53.194;6.132;2023-02-28T13:16:20;3.10;;;2.70;;
76566;SDS011;65428;53.194;6.132;2023-02-28T13:18:40;4.57;;;3.40;;
76566;SDS011;65428;53.194;6.132;2023-02-28T13:34:30;4.15;;;3.08;;
76566;SDS011;65428;53.194;6.132;2023-02-28T13:39:45;4.72;;;2.85;;
76566;SDS011;65428;53.194;6.132;2023-02-28T13:42:35;5.00;;;3.00;;
76566;SDS011;65428;53.194;6.132;2023-02-28T13:47:41;4.20;;;2.87;;
76566;SDS011;65428;53.194;6.132;2023-02-28T14:06:54;3.00;;;2.60;;
76566;SDS011;65428;53.194;6.132;2023-02-28T14:09:25;3.53;;;2.50;;
76566;SDS011;65428;53.194;6.132;2023-02-28T14:12:49;4.45;;;2.85;;
76566;SDS011;65428;53.194;6.132;2023-02-28T14:15:02;3.53;;;2.65;;
76566;SDS011;65428;53.194;6.132;2023-02-28T14:17:30;2.80;;;2.30;;
76566;SDS011;65428;53.194;6.132;2023-02-28T14:19:56;3.70;;;2.40;;
76566;SDS011;65428;53.194;6.132;2023-02-28T14:33:35;2.83;;;2.40;;
76566;SDS011;65428;53.194;6.132;2023-02-28T14:36:30;3.22;;;2.40;;
76566;SDS011;65428;53.194;6.132;2023-02-28T14:41:45;3.55;;;2.60;;
76566;SDS011;65428;53.194;6.132;2023-02-28T14:46:45;4.50;;;2.83;;
76566;SDS011;65428;53.194;6.132;2023-02-28T14:49:18;3.70;;;2.63;;
76566;SDS011;65428;53.194;6.132;2023-02-28T14:52:03;3.10;;;2.53;;
76566;SDS011;65428;53.194;6.132;2023-02-28T14:54:46;4.03;;;2.42;;
76566;SDS011;65428;53.194;6.132;2023-02-28T14:57:39;2.90;;;2.53;;
76566;SDS011;65428;53.194;6.132;2023-02-28T15:02:51;3.25;;;2.60;;
76566;SDS011;65428;53.194;6.132;2023-02-28T15:08:14;3.63;;;2.75;;
76566;SDS011;65428;53.194;6.132;2023-02-28T15:10:39;3.10;;;2.60;;
76566;SDS011;65428;53.194;6.132;2023-02-28T15:16:06;3.80;;;2.90;;
76566;SDS011;65428;53.194;6.132;2023-02-28T15:18:56;3.22;;;2.65;;
76566;SDS011;65428;53.194;6.132;2023-02-28T15:21:26;2.85;;;2.50;;
76566;SDS011;65428;53.194;6.132;2023-02-28T15:23:59;3.80;;;2.93;;
76566;SDS011;65428;53.194;6.132;2023-02-28T15:26:37;4.18;;;3.00;;
76566;SDS011;65428;53.194;6.132;2023-02-28T15:29:06;4.32;;;3.10;;
76566;SDS011;65428;53.194;6.132;2023-02-28T15:31:42;4.25;;;3.15;;
76566;SDS011;65428;53.194;6.132;2023-02-28T15:34:52;4.25;;;3.30;;
76566;SDS011;65428;53.194;6.132;2023-02-28T15:37:00;5.40;;;3.47;;
76566;SDS011;65428;53.194;6.132;2023-02-28T15:39:27;4.90;;;3.72;;
76566;SDS011;65428;53.194;6.132;2023-02-28T15:42:10;6.63;;;3.83;;
76566;SDS011;65428;53.194;6.132;2023-02-28T15:44:37;3.97;;;3.40;;
76566;SDS011;65428;53.194;6.132;2023-02-28T15:47:04;5.07;;;3.75;;
76566;SDS011;65428;53.194;6.132;2023-02-28T15:49:36;7.70;;;4.07;;
76566;SDS011;65428;53.194;6.132;2023-02-28T15:52:13;5.45;;;3.70;;
76566;SDS011;65428;53.194;6.132;2023-02-28T15:54:42;6.53;;;3.87;;
76566;SDS011;65428;53.194;6.132;2023-02-28T15:57:13;5.60;;;4.20;;
76566;SDS011;65428;53.194;6.132;2023-02-28T15:59:44;5.38;;;4.00;;
76566;SDS011;65428;53.194;6.132;2023-02-28T16:02:32;5.57;;;4.45;;
76566;SDS011;65428;53.194;6.132;2023-02-28T16:07:33;5.70;;;4.72;;
76566;SDS011;65428;53.194;6.132;2023-02-28T16:10:03;5.47;;;4.73;;
76566;SDS011;65428;53.194;6.132;2023-02-28T16:12:31;6.95;;;5.25;;
76566;SDS011;65428;53.194;6.132;2023-02-28T16:15:00;5.97;;;5.28;;
76566;SDS011;65428;53.194;6.132;2023-02-28T16:17:32;6.80;;;5.60;;
76566;SDS011;65428;53.194;6.132;2023-02-28T16:19:59;6.10;;;4.97;;
76566;SDS011;65428;53.194;6.132;2023-02-28T16:22:25;6.75;;;5.22;;
76566;SDS011;65428;53.194;6.132;2023-02-28T16:24:51;6.17;;;5.30;;
76566;SDS011;65428;53.194;6.132;2023-02-28T16:27:18;6.00;;;5.38;;
76566;SDS011;65428;53.194;6.132;2023-02-28T16:29:49;6.28;;;5.15;;
76566;SDS011;65428;53.194;6.132;2023-02-28T16:32:15;7.13;;;5.82;;
76566;SDS011;65428;53.194;6.132;2023-02-28T16:34:42;7.07;;;6.10;;
76566;SDS011;65428;53.194;6.132;2023-02-28T16:37:10;6.75;;;5.63;;
76566;SDS011;65428;53.194;6.132;2023-02-28T16:39:38;7.78;;;5.90;;
76566;SDS011;65428;53.194;6.132;2023-02-28T16:42:03;6.25;;;5.30;;
76566;SDS011;65428;53.194;6.132;2023-02-28T16:44:33;6.97;;;6.18;;
76566;SDS011;65428;53.194;6.132;2023-02-28T16:47:00;7.55;;;5.85;;
76566;SDS011;65428;53.194;6.132;2023-02-28T16:49:28;9.70;;;6.00;;
76566;SDS011;65428;53.194;6.132;2023-02-28T16:51:54;7.70;;;7.00;;
76566;SDS011;65428;53.194;6.132;2023-02-28T16:54:19;6.97;;;6.27;;
76566;SDS011;65428;53.194;6.132;2023-02-28T16:56:46;8.10;;;7.07;;
76566;SDS011;65428;53.194;6.132;2023-02-28T16:59:13;9.17;;;8.17;;
76566;SDS011;65428;53.194;6.132;2023-02-28T17:01:43;9.82;;;8.73;;
76566;SDS011;65428;53.194;6.132;2023-02-28T17:04:10;9.30;;;8.32;;
76566;SDS011;65428;53.194;6.132;2023-02-28T17:06:36;8.88;;;7.88;;
76566;SDS011;65428;53.194;6.132;2023-02-28T17:09:02;10.68;;;8.30;;
76566;SDS011;65428;53.194;6.132;2023-02-28T17:11:28;10.18;;;8.80;;
76566;SDS011;65428;53.194;6.132;2023-02-28T17:13:53;9.25;;;8.13;;
76566;SDS011;65428;53.194;6.132;2023-02-28T17:18:53;9.30;;;8.40;;
76566;SDS011;65428;53.194;6.132;2023-02-28T17:21:21;9.43;;;8.05;;
76566;SDS011;65428;53.194;6.132;2023-02-28T17:23:47;8.80;;;7.90;;
76566;SDS011;65428;53.194;6.132;2023-02-28T17:26:13;9.73;;;8.60;;